Time;durP1;ratioP1;P1;durP2;ratioP2;P2;SDS_P1;SDS_P2;PMS_P1;PMS_P2;Temp;Humidity;BMP_temperature;BMP_pressure;BME280_temperature;BME280_humidity;BME280_pressure;Samples;Min_cycle;Max_cycle;Signal;HPM_P1;HPM_P2
2023/03/29 00:00:43;;;;;;;;;;;17.50;66.30;;;;;;5042025;28;1077;-69
2023/03/29 00:03:08;;;;;;;;;;;17.50;66.30;;;;;;5039658;28;883;-69
2023/03/29 00:05:34;;;;;;;;;;;17.50;66.30;;;;;;5036941;28;1282;-69
2023/03/29 00:08:03;;;;;;;;;;;17.50;66.30;;;;;;5041405;28;1922;-69
2023/03/29 00:10:29;;;;;;;;;;;17.40;66.20;;;;;;5037618;28;832;-69
2023/03/29 00:12:54;;;;;;;;;;;17.50;66.30;;;;;;5040631;28;1014;-69
2023/03/29 00:15:20;;;;;;;;;;;17.50;66.30;;;;;;5063039;28;1527;-69
2023/03/29 00:17:45;;;;;;;;;;;17.50;66.30;;;;;;5038070;28;855;-70
2023/03/29 00:20:12;;;;;;;;;;;17.50;66.30;;;;;;5039816;28;966;-69
2023/03/29 00:22:38;;;;;;;;;;;17.50;66.20;;;;;;5040238;28;859;-69
2023/03/29 00:25:06;;;;;;;;;;;17.50;66.20;;;;;;5040346;28;1403;-69
2023/03/29 00:27:31;;;;;;;;;;;17.50;66.20;;;;;;5039815;28;1886;-69
2023/03/29 00:29:57;;;;;;;;;;;17.50;66.20;;;;;;5039888;28;1386;-69
2023/03/29 00:32:22;;;;;;;;;;;17.50;66.20;;;;;;5039126;28;1395;-71
2023/03/29 00:34:49;;;;;;;;;;;17.50;66.20;;;;;;5034566;28;1357;-71
2023/03/29 00:37:17;;;;;;;;;;;17.50;66.20;;;;;;5036642;28;1358;-71
2023/03/29 00:39:44;;;;;;;;;;;17.50;66.20;;;;;;5037113;28;1501;-71
2023/03/29 00:42:13;;;;;;;;;;;17.50;66.20;;;;;;5035508;28;911;-70
2023/03/29 00:44:52;;;;;;;;;;;17.50;66.20;;;;;;5041890;28;1268;-71
2023/03/29 00:47:18;;;;;;;;;;;17.50;66.20;;;;;;5073077;28;1956;-70
2023/03/29 00:49:44;;;;;;;;;;;17.50;66.20;;;;;;5035083;28;1318;-71
2023/03/29 00:52:10;;;;;;;;;;;17.50;66.20;;;;;;5036261;28;1074;-71
2023/03/29 00:54:36;;;;;;;;;;;17.50;66.20;;;;;;5036144;28;1362;-71
2023/03/29 00:57:02;;;;;;;;;;;17.50;66.20;;;;;;5040060;28;860;-71
2023/03/29 00:59:28;;;;;;;;;;;17.50;66.10;;;;;;5039496;28;847;-71
2023/03/29 01:01:58;;;;;;;;;;;17.50;66.20;;;;;;5043002;28;1314;-71
2023/03/29 01:04:28;;;;;;;;;;;17.50;66.20;;;;;;5036215;28;1243;-71
2023/03/29 01:07:16;;;;;;;;;;;17.50;66.20;;;;;;5045704;28;1973;-71
2023/03/29 01:09:42;;;;;;;;;;;17.50;66.10;;;;;;5038274;28;836;-71
2023/03/29 01:12:15;;;;;;;;;;;17.50;66.20;;;;;;5070294;28;881;-71
2023/03/29 01:14:48;;;;;;;;;;;17.50;66.20;;;;;;5038894;28;1275;-71
2023/03/29 01:17:14;;;;;;;;;;;17.50;66.20;;;;;;5039478;28;915;-71
2023/03/29 01:19:44;;;;;;;;;;;17.50;66.20;;;;;;5047305;28;820;-71
2023/03/29 01:22:24;;;;;;;;;;;17.50;66.10;;;;;;5070157;28;958;-71
2023/03/29 01:24:53;;;;;;;;;;;17.50;66.20;;;;;;5038562;28;1326;-70
2023/03/29 01:27:39;;;;;;;;;;;17.50;66.20;;;;;;5036162;28;1948;-69
2023/03/29 01:30:09;;;;;;;;;;;17.50;66.20;;;;;;5024675;28;1769;-70
2023/03/29 01:32:49;;;;;;;;;;;17.50;66.20;;;;;;5035029;28;871;-70
2023/03/29 01:35:17;;;;;;;;;;;17.50;66.20;;;;;;5045610;28;1311;-70
2023/03/29 01:37:44;;;;;;;;;;;17.50;66.20;;;;;;5046879;28;1379;-69
2023/03/29 01:40:10;;;;;;;;;;;17.50;66.10;;;;;;5038832;28;832;-68
2023/03/29 01:42:59;;;;;;;;;;;17.50;66.20;;;;;;5056696;28;1155;-68
2023/03/29 01:45:30;;;;;;;;;;;17.50;66.20;;;;;;5042224;28;1329;-68
2023/03/29 01:47:55;;;;;;;;;;;17.50;66.20;;;;;;5071762;28;1981;-69
2023/03/29 01:50:38;;;;;;;;;;;17.50;66.20;;;;;;5039152;28;1449;-68
2023/03/29 01:53:06;;;;;;;;;;;17.50;66.20;;;;;;5074223;28;832;-69
2023/03/29 01:55:37;;;;;;;;;;;17.50;66.20;;;;;;5041036;28;1331;-69
2023/03/29 01:58:02;;;;;;;;;;;17.50;66.20;;;;;;5071525;28;863;-69
2023/03/29 02:00:28;;;;;;;;;;;17.50;66.20;;;;;;5048819;28;840;-69
2023/03/29 02:02:55;;;;;;;;;;;17.50;66.20;;;;;;5070385;28;863;-69
2023/03/29 02:05:21;;;;;;;;;;;17.50;66.20;;;;;;5072396;28;1290;-69
2023/03/29 02:07:46;;;;;;;;;;;17.40;66.10;;;;;;5074664;28;1906;-69
2023/03/29 02:10:12;;;;;;;;;;;17.50;66.20;;;;;;5071251;28;872;-69
2023/03/29 02:12:37;;;;;;;;;;;17.50;66.20;;;;;;5073308;28;906;-69
2023/03/29 02:15:05;;;;;;;;;;;17.50;66.20;;;;;;5040312;28;1398;-69
2023/03/29 02:17:31;;;;;;;;;;;17.50;66.20;;;;;;5041666;28;891;-69
2023/03/29 02:20:03;;;;;;;;;;;17.40;66.10;;;;;;5039618;28;896;-69
2023/03/29 02:22:30;;;;;;;;;;;17.50;66.10;;;;;;5038935;28;920;-69
2023/03/29 02:24:57;;;;;;;;;;;17.50;66.10;;;;;;5041111;28;1361;-69
2023/03/29 02:27:24;;;;;;;;;;;17.50;66.10;;;;;;5039315;28;1981;-69
2023/03/29 02:29:50;;;;;;;;;;;17.50;66.20;;;;;;5041582;28;1279;-69
2023/03/29 02:32:36;;;;;;;;;;;17.50;66.20;;;;;;5041574;28;857;-70
2023/03/29 02:35:12;;;;;;;;;;;17.50;66.10;;;;;;5040430;28;1260;-70
2023/03/29 02:37:40;;;;;;;;;;;17.50;66.20;;;;;;5049337;28;1510;-69
2023/03/29 02:40:06;;;;;;;;;;;17.40;66.30;;;;;;5040068;28;867;-70
2023/03/29 02:42:32;;;;;;;;;;;17.50;66.20;;;;;;5040601;28;820;-70
2023/03/29 02:44:57;;;;;;;;;;;17.50;66.10;;;;;;5071790;28;1805;-70
2023/03/29 02:47:24;;;;;;;;;;;17.50;66.10;;;;;;5042795;28;1930;-70
2023/03/29 02:49:50;;;;;;;;;;;17.50;66.10;;;;;;5039624;28;837;-70
2023/03/29 02:52:16;;;;;;;;;;;17.50;66.10;;;;;;5042268;28;1394;-70
2023/03/29 02:54:44;;;;;;;;;;;17.50;66.10;;;;;;5040697;28;1371;-70
2023/03/29 02:57:09;;;;;;;;;;;17.50;66.10;;;;;;5043097;28;849;-71
2023/03/29 02:59:35;;;;;;;;;;;17.50;66.10;;;;;;5075430;28;905;-71
2023/03/29 03:02:01;;;;;;;;;;;17.40;66.00;;;;;;5070158;28;805;-71
2023/03/29 03:04:28;;;;;;;;;;;17.40;66.10;;;;;;5040102;28;1267;-68
2023/03/29 03:06:53;;;;;;;;;;;17.40;66.10;;;;;;5038061;28;1906;-69
2023/03/29 03:09:19;;;;;;;;;;;17.50;66.20;;;;;;5047656;28;902;-68
2023/03/29 03:11:45;;;;;;;;;;;17.40;66.10;;;;;;5039063;28;965;-69
2023/03/29 03:14:10;;;;;;;;;;;17.40;66.10;;;;;;5040448;28;1291;-67
2023/03/29 03:16:36;;;;;;;;;;;17.50;66.10;;;;;;5039280;28;856;-67
2023/03/29 03:19:01;;;;;;;;;;;17.50;66.10;;;;;;5040508;28;829;-70
2023/03/29 03:21:27;;;;;;;;;;;17.40;66.00;;;;;;5042811;28;892;-70
2023/03/29 03:23:53;;;;;;;;;;;17.40;66.10;;;;;;5043245;28;1323;-70
2023/03/29 03:26:18;;;;;;;;;;;17.50;66.20;;;;;;5039345;28;1894;-69
2023/03/29 03:28:47;;;;;;;;;;;17.40;66.10;;;;;;5038045;28;1283;-70
2023/03/29 03:31:12;;;;;;;;;;;17.50;66.20;;;;;;5040483;28;867;-70
2023/03/29 03:33:41;;;;;;;;;;;17.50;66.10;;;;;;5035804;28;948;-68
2023/03/29 03:36:07;;;;;;;;;;;17.40;66.10;;;;;;5044462;28;1547;-69
2023/03/29 03:38:32;;;;;;;;;;;17.40;66.10;;;;;;5040060;28;1153;-69
2023/03/29 03:40:58;;;;;;;;;;;17.40;66.10;;;;;;5043170;28;1197;-69
2023/03/29 03:43:23;;;;;;;;;;;17.50;66.10;;;;;;5040910;28;1076;-69
2023/03/29 03:45:49;;;;;;;;;;;17.50;66.10;;;;;;5038647;28;1368;-69
2023/03/29 03:48:15;;;;;;;;;;;17.40;66.10;;;;;;5039282;28;1965;-69
2023/03/29 03:50:41;;;;;;;;;;;17.40;66.10;;;;;;5042238;28;887;-69
2023/03/29 03:53:09;;;;;;;;;;;17.40;66.10;;;;;;5071862;28;847;-67
2023/03/29 03:55:35;;;;;;;;;;;17.40;66.10;;;;;;5039128;28;1373;-67
2023/03/29 03:58:00;;;;;;;;;;;17.40;66.10;;;;;;5037609;28;864;-67
2023/03/29 04:00:26;;;;;;;;;;;17.40;66.10;;;;;;5040311;28;865;-69
2023/03/29 04:02:53;;;;;;;;;;;17.40;66.30;;;;;;5038902;28;875;-68
2023/03/29 04:05:18;;;;;;;;;;;17.40;66.10;;;;;;5037888;28;1330;-68
2023/03/29 04:07:44;;;;;;;;;;;17.40;66.10;;;;;;5036908;28;1906;-70
2023/03/29 04:10:10;;;;;;;;;;;17.50;66.10;;;;;;5039382;28;835;-69
2023/03/29 04:12:35;;;;;;;;;;;17.50;66.10;;;;;;5039865;28;961;-68
2023/03/29 04:15:01;;;;;;;;;;;17.50;66.00;;;;;;5071844;28;1300;-69
2023/03/29 04:17:26;;;;;;;;;;;17.50;65.90;;;;;;5037367;28;901;-69
2023/03/29 04:19:52;;;;;;;;;;;17.50;65.80;;;;;;5041385;28;974;-69
2023/03/29 04:22:17;;;;;;;;;;;17.50;65.70;;;;;;5037917;28;872;-68
2023/03/29 04:24:43;;;;;;;;;;;17.60;65.70;;;;;;5071981;28;1259;-68
2023/03/29 04:27:08;;;;;;;;;;;17.60;65.60;;;;;;5021301;28;1911;-68
2023/03/29 04:29:34;;;;;;;;;;;17.60;65.50;;;;;;5034697;28;1623;-68
2023/03/29 04:31:59;;;;;;;;;;;17.70;65.40;;;;;;5041969;28;923;-68
2023/03/29 04:34:25;;;;;;;;;;;17.70;65.30;;;;;;5038286;28;1254;-68
2023/03/29 04:36:50;;;;;;;;;;;17.70;65.20;;;;;;5039103;28;1399;-68
2023/03/29 04:39:16;;;;;;;;;;;17.70;65.10;;;;;;5037793;28;876;-68
2023/03/29 04:41:46;;;;;;;;;;;17.80;65.00;;;;;;5039828;28;879;-68
2023/03/29 04:44:13;;;;;;;;;;;17.80;64.90;;;;;;5039608;28;1347;-68
2023/03/29 04:46:39;;;;;;;;;;;17.80;64.80;;;;;;5042677;28;1906;-68
2023/03/29 04:49:04;;;;;;;;;;;17.80;64.80;;;;;;5038297;28;813;-68
2023/03/29 04:51:30;;;;;;;;;;;17.80;64.70;;;;;;5072248;28;986;-68
2023/03/29 04:53:56;;;;;;;;;;;17.80;64.70;;;;;;5037508;28;1346;-68
2023/03/29 04:56:22;;;;;;;;;;;17.80;64.60;;;;;;5036478;28;884;-68
2023/03/29 04:58:48;;;;;;;;;;;17.80;64.50;;;;;;5038685;28;927;-68
2023/03/29 05:01:13;;;;;;;;;;;17.90;64.60;;;;;;5039229;28;884;-71
2023/03/29 05:03:39;;;;;;;;;;;17.90;64.50;;;;;;5037572;28;1011;-70
2023/03/29 05:06:05;;;;;;;;;;;17.90;64.50;;;;;;5037398;28;1910;-71
2023/03/29 05:08:32;;;;;;;;;;;17.90;64.50;;;;;;5069864;28;899;-71
2023/03/29 05:10:57;;;;;;;;;;;17.90;64.40;;;;;;5037065;28;852;-71
2023/03/29 05:13:23;;;;;;;;;;;17.90;64.40;;;;;;5037448;28;817;-70
2023/03/29 05:15:48;;;;;;;;;;;17.90;64.40;;;;;;5038364;28;2110;-70
2023/03/29 05:18:14;;;;;;;;;;;17.90;64.40;;;;;;5042669;28;1754;-70
2023/03/29 05:20:41;;;;;;;;;;;17.90;64.40;;;;;;5041418;28;1646;-69
2023/03/29 05:23:06;;;;;;;;;;;17.90;64.40;;;;;;5042895;28;929;-68
2023/03/29 05:25:32;;;;;;;;;;;17.90;64.40;;;;;;5040861;28;1276;-69
2023/03/29 05:27:57;;;;;;;;;;;17.90;64.50;;;;;;5043612;28;1996;-69
2023/03/29 05:30:23;;;;;;;;;;;17.90;64.50;;;;;;5074900;28;1344;-68
2023/03/29 05:32:48;;;;;;;;;;;17.90;64.40;;;;;;5041005;28;850;-68
2023/03/29 05:35:14;;;;;;;;;;;17.90;64.50;;;;;;5042988;28;1343;-68
2023/03/29 05:37:39;;;;;;;;;;;17.80;64.40;;;;;;5042105;28;1387;-70
2023/03/29 05:40:07;;;;;;;;;;;17.80;64.50;;;;;;5042527;28;1321;-70
2023/03/29 05:42:33;;;;;;;;;;;17.90;64.50;;;;;;5043296;28;871;-72
2023/03/29 05:44:58;;;;;;;;;;;17.80;64.50;;;;;;5039171;28;1292;-72
2023/03/29 05:47:24;;;;;;;;;;;17.80;64.50;;;;;;5076345;28;1966;-70
2023/03/29 05:49:50;;;;;;;;;;;17.90;64.60;;;;;;5041944;28;895;-69
2023/03/29 05:52:15;;;;;;;;;;;17.80;64.50;;;;;;5041911;28;831;-69
2023/03/29 05:54:41;;;;;;;;;;;17.80;64.60;;;;;;5047946;28;1280;-70
2023/03/29 05:57:07;;;;;;;;;;;17.80;64.60;;;;;;5039813;28;852;-69
2023/03/29 05:59:32;;;;;;;;;;;17.80;64.60;;;;;;5041280;28;826;-68
2023/03/29 06:01:59;;;;;;;;;;;17.90;64.70;;;;;;5044802;28;909;-68
2023/03/29 06:04:25;;;;;;;;;;;17.80;64.70;;;;;;5038617;28;1345;-69
2023/03/29 06:06:52;;;;;;;;;;;17.80;64.70;;;;;;5041288;28;1902;-69
2023/03/29 06:09:18;;;;;;;;;;;17.80;64.70;;;;;;5044586;28;974;-70
2023/03/29 06:11:44;;;;;;;;;;;17.80;64.70;;;;;;5040151;28;870;-69
2023/03/29 06:14:09;;;;;;;;;;;17.80;64.80;;;;;;5042318;28;1280;-70
2023/03/29 06:16:35;;;;;;;;;;;17.80;64.70;;;;;;5043756;28;877;-68
2023/03/29 06:19:00;;;;;;;;;;;17.80;64.80;;;;;;5042307;28;863;-73
2023/03/29 06:21:27;;;;;;;;;;;17.80;64.80;;;;;;5047033;28;1066;-73
2023/03/29 06:23:52;;;;;;;;;;;17.80;64.80;;;;;;5040460;28;1338;-73
2023/03/29 06:26:18;;;;;;;;;;;17.80;64.90;;;;;;5042392;28;1937;-71
2023/03/29 06:28:44;;;;;;;;;;;17.80;64.90;;;;;;5043959;28;1256;-69
2023/03/29 06:31:09;;;;;;;;;;;17.80;64.90;;;;;;5039696;28;1478;-68
2023/03/29 06:33:36;;;;;;;;;;;17.80;65.00;;;;;;5045867;28;1272;-68
2023/03/29 06:36:03;;;;;;;;;;;17.70;64.90;;;;;;5042531;28;1630;-68
2023/03/29 06:38:29;;;;;;;;;;;17.70;64.90;;;;;;5032327;28;1603;-67
2023/03/29 06:41:22;;;;;;;;;;;17.70;64.90;;;;;;5041223;28;891;-67
2023/03/29 06:43:47;;;;;;;;;;;17.70;64.90;;;;;;5038746;28;1376;-70
2023/03/29 06:46:13;;;;;;;;;;;17.70;64.90;;;;;;5041020;28;1902;-68
2023/03/29 06:48:39;;;;;;;;;;;17.70;65.00;;;;;;5040225;28;854;-68
2023/03/29 06:51:06;;;;;;;;;;;17.70;65.00;;;;;;5039048;28;868;-68
2023/03/29 06:53:32;;;;;;;;;;;17.70;65.00;;;;;;5071891;28;854;-69
2023/03/29 06:55:58;;;;;;;;;;;17.70;65.00;;;;;;5030956;28;1274;-70
2023/03/29 06:58:23;;;;;;;;;;;17.70;65.00;;;;;;5038323;28;851;-71
2023/03/29 07:00:50;;;;;;;;;;;17.70;65.10;;;;;;5039802;28;1002;-71
2023/03/29 07:03:19;;;;;;;;;;;17.70;65.10;;;;;;5040639;28;871;-71
2023/03/29 07:05:46;;;;;;;;;;;17.70;65.10;;;;;;5038833;28;1334;-71
2023/03/29 07:08:12;;;;;;;;;;;17.70;65.10;;;;;;5074512;28;2023;-71
2023/03/29 07:10:40;;;;;;;;;;;17.70;65.10;;;;;;5070762;28;884;-71
2023/03/29 07:13:05;;;;;;;;;;;17.70;65.10;;;;;;5072446;28;884;-70
2023/03/29 07:15:32;;;;;;;;;;;17.70;65.20;;;;;;5044264;28;1173;-70
2023/03/29 07:17:57;;;;;;;;;;;17.70;65.20;;;;;;5039646;28;786;-70
2023/03/29 07:20:23;;;;;;;;;;;17.70;65.20;;;;;;5068922;28;835;-70
2023/03/29 07:22:52;;;;;;;;;;;17.70;65.20;;;;;;5039567;28;824;-70
2023/03/29 07:25:18;;;;;;;;;;;17.70;65.20;;;;;;5041785;28;1280;-70
2023/03/29 07:27:45;;;;;;;;;;;17.70;65.20;;;;;;5037841;28;1963;-71
2023/03/29 07:30:11;;;;;;;;;;;17.70;65.30;;;;;;5040560;28;1032;-70
2023/03/29 07:32:37;;;;;;;;;;;17.70;65.30;;;;;;5042732;28;903;-71
2023/03/29 07:35:06;;;;;;;;;;;17.60;65.20;;;;;;5039548;28;1276;-71
2023/03/29 07:37:31;;;;;;;;;;;17.60;65.20;;;;;;5041483;28;1327;-70
2023/03/29 07:39:58;;;;;;;;;;;17.60;65.20;;;;;;5039166;28;1950;-69
2023/03/29 07:42:24;;;;;;;;;;;17.60;65.20;;;;;;5027162;28;1500;-69
2023/03/29 07:44:50;;;;;;;;;;;17.60;65.30;;;;;;5042279;28;1378;-70
2023/03/29 07:47:15;;;;;;;;;;;17.60;65.30;;;;;;5038042;28;1981;-70
2023/03/29 07:49:44;;;;;;;;;;;17.60;65.30;;;;;;5039494;28;880;-70
2023/03/29 07:52:09;;;;;;;;;;;17.60;65.40;;;;;;5039492;28;985;-71
2023/03/29 07:54:34;;;;;;;;;;;17.60;65.30;;;;;;5069637;28;1236;-71
2023/03/29 07:57:00;;;;;;;;;;;17.60;65.30;;;;;;5040416;28;796;-70
2023/03/29 07:59:26;;;;;;;;;;;17.60;65.30;;;;;;5037836;28;820;-71
2023/03/29 08:01:52;;;;;;;;;;;17.60;65.30;;;;;;5038729;28;1432;-70
2023/03/29 08:04:18;;;;;;;;;;;17.60;65.30;;;;;;5039981;28;1338;-70
2023/03/29 08:06:43;;;;;;;;;;;17.60;65.30;;;;;;5039988;28;1967;-69
2023/03/29 08:09:09;;;;;;;;;;;17.60;65.30;;;;;;5037053;28;803;-69
2023/03/29 08:11:34;;;;;;;;;;;17.60;65.40;;;;;;5037377;28;1262;-70
2023/03/29 08:13:59;;;;;;;;;;;17.60;65.20;;;;;;5040228;28;1338;-70
2023/03/29 08:16:25;;;;;;;;;;;17.60;65.20;;;;;;5037591;28;1061;-69
2023/03/29 08:18:51;;;;;;;;;;;17.60;65.20;;;;;;5038220;28;1190;-69
2023/03/29 08:21:16;;;;;;;;;;;17.70;65.20;;;;;;5041306;28;888;-69
2023/03/29 08:23:42;;;;;;;;;;;17.70;65.20;;;;;;5036989;28;1298;-69
2023/03/29 08:26:10;;;;;;;;;;;17.70;65.10;;;;;;5039708;28;1934;-69
2023/03/29 08:28:35;;;;;;;;;;;17.70;65.20;;;;;;5038927;28;1258;-69
2023/03/29 08:31:01;;;;;;;;;;;17.70;65.10;;;;;;5070604;28;1617;-68
2023/03/29 08:33:26;;;;;;;;;;;17.70;65.00;;;;;;5040208;28;1011;-70
2023/03/29 08:35:52;;;;;;;;;;;17.70;65.00;;;;;;5039851;28;1246;-69
2023/03/29 08:38:18;;;;;;;;;;;17.70;64.90;;;;;;5038647;28;1340;-69
2023/03/29 08:40:46;;;;;;;;;;;17.70;64.90;;;;;;5047302;28;887;-70
2023/03/29 08:43:33;;;;;;;;;;;17.70;65.00;;;;;;5039149;28;1024;-70
2023/03/29 08:45:58;;;;;;;;;;;17.70;64.90;;;;;;5034887;28;1227;-70
2023/03/29 08:48:27;;;;;;;;;;;17.70;64.90;;;;;;5037035;28;1969;-70
2023/03/29 08:50:53;;;;;;;;;;;17.80;65.00;;;;;;5036936;28;884;-70
2023/03/29 08:53:21;;;;;;;;;;;17.70;64.90;;;;;;5068919;28;835;-70
2023/03/29 08:55:47;;;;;;;;;;;17.80;64.90;;;;;;5040686;28;1261;-70
2023/03/29 08:58:14;;;;;;;;;;;17.70;64.90;;;;;;5035270;28;1229;-69
2023/03/29 09:00:42;;;;;;;;;;;17.80;64.90;;;;;;5070545;28;899;-69
2023/03/29 09:03:14;;;;;;;;;;;17.80;64.90;;;;;;5036279;28;950;-70
2023/03/29 09:05:42;;;;;;;;;;;17.70;64.90;;;;;;5038250;28;1292;-70
2023/03/29 09:08:10;;;;;;;;;;;17.70;64.90;;;;;;5037470;28;1965;-69
2023/03/29 09:10:41;;;;;;;;;;;17.70;64.90;;;;;;5037602;28;936;-70
2023/03/29 09:13:29;;;;;;;;;;;17.70;64.90;;;;;;5037394;28;842;-70
2023/03/29 09:15:54;;;;;;;;;;;17.70;64.90;;;;;;5037224;28;1393;-70
2023/03/29 09:18:31;;;;;;;;;;;17.70;64.90;;;;;;5035810;28;857;-70
2023/03/29 09:21:00;;;;;;;;;;;17.70;65.00;;;;;;5037828;28;868;-70
2023/03/29 09:23:39;;;;;;;;;;;17.70;65.00;;;;;;5069858;28;874;-70
2023/03/29 09:26:24;;;;;;;;;;;17.70;65.00;;;;;;5038367;28;1902;-71
2023/03/29 09:28:53;;;;;;;;;;;17.70;65.00;;;;;;5039110;28;1047;-70
2023/03/29 09:31:25;;;;;;;;;;;17.70;65.00;;;;;;5037987;28;820;-70
2023/03/29 09:33:57;;;;;;;;;;;17.70;65.10;;;;;;5039442;28;1268;-70
2023/03/29 09:36:24;;;;;;;;;;;17.70;65.00;;;;;;5038159;28;812;-70
2023/03/29 09:38:53;;;;;;;;;;;17.70;65.10;;;;;;5027918;28;1299;-71
2023/03/29 09:41:37;;;;;;;;;;;17.70;65.10;;;;;;5035996;28;858;-70
2023/03/29 09:44:06;;;;;;;;;;;17.70;65.20;;;;;;5035495;28;1282;-71
2023/03/29 09:46:37;;;;;;;;;;;17.70;65.20;;;;;;5040686;28;1959;-70
2023/03/29 09:49:03;;;;;;;;;;;17.70;65.20;;;;;;5069254;28;948;-70
2023/03/29 09:51:29;;;;;;;;;;;17.70;65.20;;;;;;5036166;28;876;-70
2023/03/29 09:53:55;;;;;;;;;;;17.70;65.30;;;;;;5038768;28;1566;-70
2023/03/29 09:56:20;;;;;;;;;;;17.60;65.20;;;;;;5023908;28;1560;-70
2023/03/29 09:58:46;;;;;;;;;;;17.70;65.30;;;;;;5043696;28;1301;-70
2023/03/29 10:01:13;;;;;;;;;;;17.60;65.20;;;;;;5035976;28;1235;-70
2023/03/29 10:03:38;;;;;;;;;;;17.60;65.20;;;;;;5039383;28;890;-70
2023/03/29 10:06:05;;;;;;;;;;;17.60;65.30;;;;;;5041950;28;1222;-71
2023/03/29 10:08:33;;;;;;;;;;;17.60;65.40;;;;;;5043466;28;959;-70
2023/03/29 10:10:59;;;;;;;;;;;17.60;65.40;;;;;;5042866;28;1031;-71
2023/03/29 10:13:29;;;;;;;;;;;17.60;65.40;;;;;;5073336;28;1141;-71
2023/03/29 10:16:02;;;;;;;;;;;17.60;65.40;;;;;;5040590;28;1205;-70
2023/03/29 10:18:28;;;;;;;;;;;17.60;65.40;;;;;;5041538;28;852;-70
2023/03/29 10:21:01;;;;;;;;;;;17.60;65.40;;;;;;5038535;28;931;-70
2023/03/29 10:23:33;;;;;;;;;;;17.60;65.50;;;;;;5041412;28;879;-70
2023/03/29 10:25:59;;;;;;;;;;;17.60;65.50;;;;;;5040931;28;1265;-71
2023/03/29 10:28:26;;;;;;;;;;;17.60;65.50;;;;;;5040014;28;1891;-70
2023/03/29 10:30:55;;;;;;;;;;;17.60;65.50;;;;;;5050212;28;860;-69
2023/03/29 10:33:21;;;;;;;;;;;17.60;65.50;;;;;;5040325;28;899;-69
2023/03/29 10:35:47;;;;;;;;;;;17.60;65.60;;;;;;5041439;28;1257;-71
2023/03/29 10:38:13;;;;;;;;;;;17.60;65.60;;;;;;5049531;28;1466;-69
2023/03/29 10:40:48;;;;;;;;;;;17.60;65.60;;;;;;5040856;28;844;-68
2023/03/29 10:43:21;;;;;;;;;;;17.60;65.60;;;;;;5041403;28;974;-69
2023/03/29 10:45:46;;;;;;;;;;;17.60;65.60;;;;;;5043286;28;1263;-69
2023/03/29 10:48:13;;;;;;;;;;;17.50;65.60;;;;;;5036033;28;1960;-69
2023/03/29 10:50:39;;;;;;;;;;;17.50;65.60;;;;;;5043090;28;850;-71
2023/03/29 10:53:06;;;;;;;;;;;17.50;65.60;;;;;;5056023;28;1202;-70
2023/03/29 10:55:33;;;;;;;;;;;17.50;65.60;;;;;;5037154;28;1292;-70
2023/03/29 10:58:17;;;;;;;;;;;17.50;65.70;;;;;;5068582;28;896;-70
2023/03/29 11:00:43;;;;;;;;;;;17.60;65.80;;;;;;5049170;28;884;-70
2023/03/29 11:03:30;;;;;;;;;;;17.50;65.70;;;;;;5038627;28;952;-70
2023/03/29 11:06:03;;;;;;;;;;;17.50;65.70;;;;;;5069421;28;1648;-70
2023/03/29 11:08:43;;;;;;;;;;;17.50;65.70;;;;;;5073080;28;1898;-70
2023/03/29 11:11:19;;;;;;;;;;;17.50;65.70;;;;;;5040488;28;1556;-69
2023/03/29 11:14:00;;;;;;;;;;;17.50;65.80;;;;;;5037621;28;1297;-70
2023/03/29 11:16:28;;;;;;;;;;;17.50;65.80;;;;;;5046399;28;926;-70
2023/03/29 11:18:57;;;;;;;;;;;17.50;65.80;;;;;;5068953;28;808;-70
2023/03/29 11:21:22;;;;;;;;;;;17.50;65.90;;;;;;5041740;28;888;-69
2023/03/29 11:23:48;;;;;;;;;;;17.50;65.90;;;;;;5042472;28;1350;-70
2023/03/29 11:26:23;;;;;;;;;;;17.50;65.90;;;;;;5043610;28;1907;-70
2023/03/29 11:29:12;;;;;;;;;;;17.50;65.90;;;;;;5040817;28;1029;-70
2023/03/29 11:31:57;;;;;;;;;;;17.50;65.90;;;;;;5040605;28;1299;-70
2023/03/29 11:34:23;;;;;;;;;;;17.40;65.80;;;;;;5040279;28;1279;-70
2023/03/29 11:37:03;;;;;;;;;;;17.40;65.80;;;;;;5040942;28;1042;-70
2023/03/29 11:39:41;;;;;;;;;;;17.50;65.90;;;;;;5041144;28;907;-70
2023/03/29 11:42:08;;;;;;;;;;;17.50;65.90;;;;;;5040217;28;861;-70
2023/03/29 11:44:33;;;;;;;;;;;17.40;66.00;;;;;;5046955;28;1292;-70
2023/03/29 11:47:04;;;;;;;;;;;17.40;65.90;;;;;;5039968;28;1970;-71
2023/03/29 11:49:41;;;;;;;;;;;17.40;65.90;;;;;;5041112;28;1465;-70
2023/03/29 11:52:09;;;;;;;;;;;17.50;66.00;;;;;;5070523;28;876;-70
2023/03/29 11:54:39;;;;;;;;;;;17.40;65.90;;;;;;5071586;28;1264;-70
2023/03/29 11:57:22;;;;;;;;;;;17.40;66.00;;;;;;5027836;28;871;-70
2023/03/29 12:00:01;;;;;;;;;;;17.40;66.00;;;;;;5049730;28;855;-70
2023/03/29 12:02:28;;;;;;;;;;;17.50;66.10;;;;;;5041798;28;859;-70
2023/03/29 12:04:54;;;;;;;;;;;17.40;66.00;;;;;;5036990;28;1310;-71
2023/03/29 12:07:26;;;;;;;;;;;17.40;66.00;;;;;;5037973;28;1958;-70
2023/03/29 12:09:53;;;;;;;;;;;17.40;66.00;;;;;;5043215;28;855;-70
2023/03/29 12:12:39;;;;;;;;;;;17.40;66.00;;;;;;5069834;28;839;-70
2023/03/29 12:15:18;;;;;;;;;;;17.40;66.00;;;;;;5038372;28;1382;-70
2023/03/29 12:18:04;;;;;;;;;;;17.40;66.10;;;;;;5039566;28;829;-70
2023/03/29 12:20:31;;;;;;;;;;;17.40;66.10;;;;;;5038557;28;1161;-70
2023/03/29 12:22:56;;;;;;;;;;;17.40;66.10;;;;;;5069270;28;817;-70
2023/03/29 12:25:40;;;;;;;;;;;17.40;66.10;;;;;;5037299;28;1275;-70
2023/03/29 12:28:11;;;;;;;;;;;17.40;66.20;;;;;;5038328;28;1898;-69
2023/03/29 12:30:38;;;;;;;;;;;17.40;66.10;;;;;;5071357;28;1496;-68
2023/03/29 12:33:36;;;;;;;;;;;17.40;66.20;;;;;;5072848;28;1507;-70
2023/03/29 12:36:07;;;;;;;;;;;17.40;66.20;;;;;;5023163;28;1488;-68
2023/03/29 12:38:33;;;;;;;;;;;17.40;66.20;;;;;;5057255;28;1337;-69
2023/03/29 12:40:59;;;;;;;;;;;17.40;66.20;;;;;;5041243;28;1358;-69
2023/03/29 12:43:29;;;;;;;;;;;17.40;66.20;;;;;;5040678;28;1337;-69
2023/03/29 12:45:57;;;;;;;;;;;17.40;66.20;;;;;;5045772;28;1624;-69
2023/03/29 12:48:23;;;;;;;;;;;17.40;66.20;;;;;;5038318;28;1902;-70
2023/03/29 12:50:48;;;;;;;;;;;17.40;66.20;;;;;;5039320;28;1423;-69
2023/03/29 12:53:16;;;;;;;;;;;17.30;66.20;;;;;;5041274;28;1298;-69
2023/03/29 12:55:42;;;;;;;;;;;17.40;66.20;;;;;;5061351;28;1345;-69
2023/03/29 12:58:40;;;;;;;;;;;17.30;66.20;;;;;;5039476;28;908;-69
2023/03/29 13:01:06;;;;;;;;;;;17.30;66.20;;;;;;5021614;28;1219;-69
2023/03/29 13:03:35;;;;;;;;;;;17.40;66.30;;;;;;5041379;28;817;-69
2023/03/29 13:06:03;;;;;;;;;;;17.40;66.30;;;;;;5039264;28;1434;-69
2023/03/29 13:08:32;;;;;;;;;;;17.40;66.30;;;;;;5035780;28;1902;-69
2023/03/29 13:10:57;;;;;;;;;;;17.30;66.30;;;;;;5036727;28;1889;-69
2023/03/29 13:13:33;;;;;;;;;;;17.30;66.30;;;;;;5038042;28;859;-70
2023/03/29 13:16:10;;;;;;;;;;;17.30;66.30;;;;;;5045806;28;1487;-70
2023/03/29 13:18:42;;;;;;;;;;;17.30;66.30;;;;;;5039892;28;1141;-69
2023/03/29 13:21:10;;;;;;;;;;;17.30;66.30;;;;;;5036590;28;1262;-70
2023/03/29 13:23:47;;;;;;;;;;;17.30;66.30;;;;;;5043933;28;1345;-71
2023/03/29 13:26:20;;;;;;;;;;;17.30;66.30;;;;;;5070073;28;1899;-70
2023/03/29 13:28:52;;;;;;;;;;;17.30;66.30;;;;;;5042435;28;1385;-70
2023/03/29 13:31:17;;;;;;;;;;;17.30;66.30;;;;;;5040988;28;1602;-70
2023/03/29 13:33:56;;;;;;;;;;;17.30;66.30;;;;;;5040505;28;1399;-68
2023/03/29 13:36:40;;;;;;;;;;;17.30;66.40;;;;;;5068441;28;2253;-69
2023/03/29 13:39:05;;;;;;;;;;;17.30;66.40;;;;;;5042415;28;861;-68
2023/03/29 13:41:31;;;;;;;;;;;17.30;66.40;;;;;;5045394;28;855;-69
2023/03/29 13:43:56;;;;;;;;;;;17.30;66.40;;;;;;5043429;28;1318;-69
2023/03/29 13:46:23;;;;;;;;;;;17.30;66.40;;;;;;5040414;28;1902;-69
2023/03/29 13:48:50;;;;;;;;;;;17.30;66.40;;;;;;5043182;28;903;-69
2023/03/29 13:51:15;;;;;;;;;;;17.30;66.40;;;;;;5044034;28;907;-70
2023/03/29 13:53:50;;;;;;;;;;;17.30;66.40;;;;;;5043259;28;819;-68
2023/03/29 13:56:17;;;;;;;;;;;17.30;66.40;;;;;;5041243;28;832;-69
2023/03/29 13:58:50;;;;;;;;;;;17.30;66.40;;;;;;5038738;28;853;-69
2023/03/29 14:01:18;;;;;;;;;;;17.30;66.40;;;;;;5038649;28;927;-69
2023/03/29 14:03:44;;;;;;;;;;;17.30;66.50;;;;;;5039917;28;1347;-70
2023/03/29 14:06:11;;;;;;;;;;;17.30;66.50;;;;;;5067192;28;1265;-70
2023/03/29 14:08:38;;;;;;;;;;;17.30;66.50;;;;;;5043327;28;1898;-70
2023/03/29 14:11:04;;;;;;;;;;;17.30;66.50;;;;;;5041168;28;887;-70
2023/03/29 14:13:29;;;;;;;;;;;17.30;66.50;;;;;;5075397;28;943;-70
2023/03/29 14:15:56;;;;;;;;;;;17.30;66.50;;;;;;5039548;28;1365;-70
2023/03/29 14:18:22;;;;;;;;;;;17.30;66.50;;;;;;5037179;28;891;-70
2023/03/29 14:20:49;;;;;;;;;;;17.30;66.50;;;;;;5044760;28;870;-70
2023/03/29 14:23:16;;;;;;;;;;;17.30;66.50;;;;;;5071531;28;839;-70
2023/03/29 14:25:42;;;;;;;;;;;17.30;66.50;;;;;;5040515;28;1294;-70
2023/03/29 14:28:37;;;;;;;;;;;17.20;66.50;;;;;;5076938;28;1910;-71
2023/03/29 14:31:02;;;;;;;;;;;17.20;66.50;;;;;;5043269;28;1432;-70
2023/03/29 14:33:28;;;;;;;;;;;17.30;66.50;;;;;;5037161;28;899;-70
2023/03/29 14:35:54;;;;;;;;;;;17.30;66.50;;;;;;5069241;28;1278;-70
2023/03/29 14:38:21;;;;;;;;;;;17.30;66.90;;;;;;5049012;28;1112;-69
2023/03/29 14:40:46;;;;;;;;;;;17.30;66.50;;;;;;5072835;28;875;-70
2023/03/29 14:43:13;;;;;;;;;;;17.30;66.60;;;;;;5039617;28;926;-69